createdAt,value
2023-03-17T00:01:19.751Z,100960.47
2023-03-17T00:03:49.792Z,100965.50
2023-03-17T00:06:30.014Z,100964.56
2023-03-17T00:08:57.618Z,100960.22
2023-03-17T00:11:26.936Z,100961.91
2023-03-17T00:13:54.694Z,100965.34
2023-03-17T00:16:29.552Z,100960.13
2023-03-17T00:18:58.288Z,100947.94
2023-03-17T00:21:34.340Z,100942.66
2023-03-17T00:24:01.792Z,100944.34
2023-03-17T00:26:28.713Z,100942.59
2023-03-17T00:28:55.762Z,100933.88
2023-03-17T00:31:25.724Z,100939.88
2023-03-17T00:33:54.293Z,100940.66
2023-03-17T00:36:28.133Z,100934.59
2023-03-17T00:38:55.741Z,100936.28
2023-03-17T00:41:22.885Z,100930.25
2023-03-17T00:43:50.768Z,100925.91
2023-03-17T00:46:35.840Z,100916.38
2023-03-17T00:49:24.716Z,100912.03
2023-03-17T00:51:52.423Z,100907.81
2023-03-17T00:54:20.921Z,100894.97
2023-03-17T00:56:49.754Z,100885.53
2023-03-17T00:59:37.278Z,100881.31
2023-03-17T01:02:04.334Z,100885.69
2023-03-17T01:04:31.312Z,100891.78
2023-03-17T01:06:58.599Z,100883.28
2023-03-17T01:09:27.480Z,100885.88
2023-03-17T01:11:55.783Z,100885.94
2023-03-17T01:14:24.694Z,100880.84
2023-03-17T01:16:53.119Z,100878.25
2023-03-17T01:19:20.037Z,100879.19
2023-03-17T01:21:48.078Z,100880.13
2023-03-17T01:24:15.070Z,100877.59
2023-03-17T01:26:41.972Z,100884.53
2023-03-17T01:29:09.220Z,100870.78
2023-03-17T01:31:36.387Z,100858.75
2023-03-17T01:34:06.057Z,100864.75
2023-03-17T01:36:33.013Z,100854.41
2023-03-17T01:38:59.917Z,100854.41
2023-03-17T01:41:26.818Z,100842.31
2023-03-17T01:43:53.937Z,100843.94
2023-03-17T01:46:35.462Z,100854.28
2023-03-17T01:49:24.979Z,100838.78
2023-03-17T01:52:12.567Z,100831.97
2023-03-17T01:55:04.199Z,100833.66
2023-03-17T01:57:53.505Z,100830.19
2023-03-17T02:00:24.895Z,100830.19
2023-03-17T02:02:55.553Z,100825.03
2023-03-17T02:05:29.719Z,100822.34
2023-03-17T02:07:57.164Z,100827.53
2023-03-17T02:10:27.570Z,100815.41
2023-03-17T02:12:59.188Z,100821.41
2023-03-17T02:15:57.017Z,100819.56
2023-03-17T02:18:24.048Z,100805.78
2023-03-17T02:20:53.664Z,100803.13
2023-03-17T02:23:23.295Z,100809.94
2023-03-17T02:25:53.691Z,100801.31
2023-03-17T02:28:28.299Z,100803.88
2023-03-17T02:30:55.258Z,100805.59
2023-03-17T02:33:22.184Z,100809.88
2023-03-17T02:35:49.160Z,100814.22
2023-03-17T02:38:17.383Z,100805.66
2023-03-17T02:40:44.327Z,100795.38
2023-03-17T02:43:11.284Z,100795.44
2023-03-17T02:45:38.218Z,100791.16
2023-03-17T02:48:06.186Z,100792.94
2023-03-17T02:50:33.532Z,100790.34
2023-03-17T02:53:00.722Z,100784.28
2023-03-17T02:55:27.637Z,100779.13
2023-03-17T02:57:54.516Z,100787.69
2023-03-17T03:00:22.089Z,100786.00
2023-03-17T03:02:49.047Z,100792.03
2023-03-17T03:05:16.011Z,100781.72
2023-03-17T03:07:43.392Z,100782.59
2023-03-17T03:10:11.169Z,100780.88
2023-03-17T03:12:38.293Z,100783.47
2023-03-17T03:15:06.998Z,100798.16
2023-03-17T03:17:33.941Z,100801.63
2023-03-17T03:20:00.807Z,100800.75
2023-03-17T03:22:27.724Z,100796.38
2023-03-17T03:24:54.637Z,100800.69
2023-03-17T03:27:21.687Z,100804.97
2023-03-17T03:29:48.579Z,100813.59
2023-03-17T03:32:15.466Z,100802.38
2023-03-17T03:34:42.563Z,100811.84
2023-03-17T03:37:09.520Z,100801.50
2023-03-17T03:39:37.475Z,100804.84
2023-03-17T03:42:04.617Z,100800.47
2023-03-17T03:44:31.517Z,100790.97
2023-03-17T03:46:58.460Z,100788.38
2023-03-17T03:49:25.553Z,100807.34
2023-03-17T03:51:52.481Z,100804.72
2023-03-17T03:54:19.484Z,100797.78
2023-03-17T03:56:46.381Z,100800.28
2023-03-17T03:59:13.380Z,100800.25
2023-03-17T04:01:40.397Z,100796.81
2023-03-17T04:04:07.549Z,100793.34
2023-03-17T04:06:34.486Z,100800.19
2023-03-17T04:09:01.386Z,100789.81
2023-03-17T04:11:28.346Z,100797.56
2023-03-17T04:13:55.697Z,100791.44
2023-03-17T04:16:22.766Z,100781.03
2023-03-17T04:18:49.867Z,100783.56
2023-03-17T04:21:18.999Z,100787.84
2023-03-17T04:23:46.481Z,100787.78
2023-03-17T04:26:13.672Z,100774.75
2023-03-17T04:28:41.095Z,100770.41
2023-03-17T04:31:12.377Z,100756.56
2023-03-17T04:33:40.431Z,100760.78
2023-03-17T04:36:08.621Z,100748.69
2023-03-17T04:38:35.602Z,100745.22
2023-03-17T04:41:02.537Z,100765.84
2023-03-17T04:43:29.529Z,100773.50
2023-03-17T04:45:56.924Z,100764.81
2023-03-17T04:48:23.868Z,100760.47
2023-03-17T04:50:51.366Z,100769.03
2023-03-17T04:53:18.245Z,100773.31
2023-03-17T04:55:45.869Z,100765.56
2023-03-17T04:58:21.117Z,100754.34
2023-03-17T05:00:54.988Z,100752.59
2023-03-17T05:03:27.319Z,100760.34
2023-03-17T05:05:55.546Z,100755.19
2023-03-17T05:08:22.500Z,100757.81
2023-03-17T05:10:49.604Z,100759.59
2023-03-17T05:13:16.563Z,100750.97
2023-03-17T05:15:52.068Z,100744.16
2023-03-17T05:18:21.195Z,100736.53
2023-03-17T05:20:48.237Z,100740.94
2023-03-17T05:23:15.299Z,100737.63
2023-03-17T05:25:42.314Z,100742.88
2023-03-17T05:28:10.115Z,100747.34
2023-03-17T05:30:37.099Z,100751.81
2023-03-17T05:33:04.878Z,100746.72
2023-03-17T05:35:31.899Z,100733.84
2023-03-17T05:37:58.816Z,100733.91
2023-03-17T05:40:26.574Z,100751.19
2023-03-17T05:42:53.687Z,100752.97
2023-03-17T05:45:20.639Z,100742.72
2023-03-17T05:47:47.601Z,100750.56
2023-03-17T05:50:14.888Z,100753.34
2023-03-17T05:52:41.898Z,100754.38
2023-03-17T05:55:09.492Z,100760.56
2023-03-17T05:57:36.455Z,100760.75
2023-03-17T06:00:05.356Z,100758.22
2023-03-17T06:02:32.647Z,100762.66
2023-03-17T06:04:59.665Z,100764.53
2023-03-17T06:07:28.398Z,100765.53
2023-03-17T06:09:58.365Z,100741.50
2023-03-17T06:12:25.874Z,100744.09
2023-03-17T06:14:52.776Z,100738.09
2023-03-17T06:17:19.716Z,100739.06
2023-03-17T06:19:49.324Z,100745.97
2023-03-17T06:22:17.112Z,100753.81
2023-03-17T06:24:44.065Z,100757.34
2023-03-17T06:27:11.244Z,100754.06
2023-03-17T06:29:38.155Z,100749.88
2023-03-17T06:32:19.393Z,100746.56
2023-03-17T06:34:47.427Z,100742.38
2023-03-17T06:37:14.689Z,100738.28
2023-03-17T06:39:42.241Z,100739.28
2023-03-17T06:42:09.665Z,100748.06
2023-03-17T06:44:37.145Z,100748.16
2023-03-17T06:47:04.907Z,100737.09
2023-03-17T06:49:32.153Z,100726.06
2023-03-17T06:51:59.169Z,100726.31
2023-03-17T06:54:26.622Z,100725.72
2023-03-17T06:56:53.936Z,100720.94
2023-03-17T06:59:22.724Z,100711.81
2023-03-17T07:01:50.295Z,100706.09
2023-03-17T07:04:17.425Z,100715.94
2023-03-17T07:06:44.916Z,100719.03
2023-03-17T07:09:11.877Z,100710.06
2023-03-17T07:11:39.134Z,100720.81
2023-03-17T07:14:06.734Z,100699.47
2023-03-17T07:16:33.860Z,100696.31
2023-03-17T07:19:01.861Z,100690.44
2023-03-17T07:21:28.816Z,100694.00
2023-03-17T07:23:56.191Z,100692.41
2023-03-17T07:26:23.186Z,100690.44
2023-03-17T07:28:50.164Z,100699.56
2023-03-17T07:31:17.168Z,100679.63
2023-03-17T07:33:44.266Z,100670.03
2023-03-17T07:36:11.267Z,100669.59
2023-03-17T07:38:38.338Z,100669.53
2023-03-17T07:41:09.706Z,100665.75
2023-03-17T07:43:37.686Z,100638.78
2023-03-17T07:46:06.422Z,100652.34
2023-03-17T07:48:34.461Z,100680.69
2023-03-17T07:51:01.428Z,100671.50
2023-03-17T07:53:28.441Z,100691.03
2023-03-17T07:55:55.346Z,100681.31
2023-03-17T07:58:22.609Z,100674.13
2023-03-17T08:00:49.646Z,100681.41
2023-03-17T08:03:16.932Z,100676.78
2023-03-17T08:05:44.531Z,100666.69
2023-03-17T08:08:12.601Z,100676.75
2023-03-17T08:10:39.683Z,100679.88
2023-03-17T08:13:06.697Z,100676.63
2023-03-17T08:15:33.658Z,100670.53
2023-03-17T08:18:01.269Z,100667.03
2023-03-17T08:20:28.197Z,100665.31
2023-03-17T08:22:56.081Z,100656.50
2023-03-17T08:25:24.176Z,100663.38
2023-03-17T08:27:51.557Z,100654.41
2023-03-17T08:30:20.738Z,100650.50
2023-03-17T08:32:48.153Z,100655.47
2023-03-17T08:35:18.553Z,100650.09
2023-03-17T08:37:47.539Z,100663.03
2023-03-17T08:40:18.407Z,100671.56
2023-03-17T08:42:47.502Z,100671.50
2023-03-17T08:45:18.356Z,100662.88
2023-03-17T08:47:46.717Z,100652.41
2023-03-17T08:50:20.202Z,100626.97
2023-03-17T08:52:48.711Z,100627.69
2023-03-17T08:55:16.460Z,100635.38
2023-03-17T08:57:45.057Z,100616.88
2023-03-17T09:00:15.328Z,100621.19
2023-03-17T09:02:43.908Z,100627.31
2023-03-17T09:05:16.880Z,100617.78
2023-03-17T09:07:44.521Z,100618.75
2023-03-17T09:10:16.400Z,100611.88
2023-03-17T09:12:43.505Z,100599.72
2023-03-17T09:15:12.411Z,100611.19
2023-03-17T09:17:39.560Z,100606.97
2023-03-17T09:20:07.263Z,100604.41
2023-03-17T09:22:34.194Z,100608.81
2023-03-17T09:25:01.112Z,100613.31
2023-03-17T09:27:28.011Z,100608.31
2023-03-17T09:29:54.921Z,100599.84
2023-03-17T09:32:22.605Z,100593.97
2023-03-17T09:34:51.493Z,100602.84
2023-03-17T09:37:18.564Z,100601.28
2023-03-17T09:39:46.356Z,100611.00
2023-03-17T09:42:36.413Z,100599.66
2023-03-17T09:45:28.151Z,100604.06
2023-03-17T09:48:35.328Z,100599.75
2023-03-17T09:51:10.224Z,100593.38
2023-03-17T09:54:02.507Z,100598.31
2023-03-17T09:56:33.966Z,100595.47
2023-03-17T09:59:28.601Z,100588.53
2023-03-17T10:01:56.998Z,100597.41
2023-03-17T10:04:24.296Z,100580.00
2023-03-17T10:06:52.814Z,100577.47
2023-03-17T10:09:47.123Z,100576.69
2023-03-17T10:12:45.361Z,100576.53
2023-03-17T10:15:36.151Z,100579.75
2023-03-17T10:18:10.843Z,100585.41
2023-03-17T10:21:09.656Z,100589.25
2023-03-17T10:23:36.712Z,100594.16
2023-03-17T10:26:42.593Z,100583.66
2023-03-17T10:29:22.545Z,100587.53
2023-03-17T10:31:52.884Z,100584.31
2023-03-17T10:34:27.972Z,100583.00
2023-03-17T10:37:09.680Z,100575.41
2023-03-17T10:39:53.407Z,100569.38
2023-03-17T10:42:25.384Z,100566.75
2023-03-17T10:45:16.591Z,100572.00
2023-03-17T10:47:48.999Z,100559.00
2023-03-17T10:50:26.229Z,100553.72
2023-03-17T10:53:00.785Z,100549.31
2023-03-17T10:55:50.130Z,100551.09
2023-03-17T10:58:39.794Z,100558.19
2023-03-17T11:01:21.845Z,100546.91
2023-03-17T11:03:49.647Z,100549.56
2023-03-17T11:06:20.269Z,100543.47
2023-03-17T11:08:53.745Z,100537.31
2023-03-17T11:11:46.429Z,100539.09
2023-03-17T11:14:20.250Z,100541.69
2023-03-17T11:17:00.008Z,100533.72
2023-03-17T11:19:31.760Z,100537.13
2023-03-17T11:22:29.126Z,100528.38
2023-03-17T11:25:19.771Z,100530.19
2023-03-17T11:28:19.357Z,100529.34
2023-03-17T11:30:54.930Z,100527.66
2023-03-17T11:33:55.216Z,100514.66
2023-03-17T11:36:28.096Z,100526.13
2023-03-17T11:39:27.441Z,100515.69
2023-03-17T11:42:15.457Z,100528.81
2023-03-17T11:45:09.858Z,100520.94
2023-03-17T11:48:10.424Z,100523.63
2023-03-17T11:51:08.429Z,100520.13
2023-03-17T11:54:09.934Z,100521.91
2023-03-17T11:56:46.138Z,100521.91
2023-03-17T11:59:30.574Z,100509.69
2023-03-17T12:02:20.365Z,100498.31
2023-03-17T12:04:57.419Z,100495.69
2023-03-17T12:07:34.382Z,100500.06
2023-03-17T12:10:16.528Z,100497.44
2023-03-17T12:12:53.155Z,100500.94
2023-03-17T12:15:29.347Z,100499.19
2023-03-17T12:18:17.858Z,100491.31
2023-03-17T12:21:17.535Z,100479.03
2023-03-17T12:24:01.893Z,100472.84
2023-03-17T12:26:55.901Z,100472.81
2023-03-17T12:29:52.547Z,100487.63
2023-03-17T12:32:50.476Z,100490.25
2023-03-17T12:35:34.854Z,100481.50
2023-03-17T12:38:29.525Z,100483.19
2023-03-17T12:41:20.283Z,100468.28
2023-03-17T12:44:08.006Z,100460.34
2023-03-17T12:46:41.857Z,100462.94
2023-03-17T12:49:56.002Z,100452.44
2023-03-17T12:52:39.987Z,100448.94
2023-03-17T12:55:15.207Z,100438.44
2023-03-17T12:57:46.935Z,100449.81
2023-03-17T13:00:29.693Z,100433.16
2023-03-17T13:03:25.667Z,100435.78
2023-03-17T13:06:02.159Z,100441.03
2023-03-17T13:08:35.022Z,100446.28
2023-03-17T13:11:29.629Z,100443.66
2023-03-17T13:14:08.539Z,100441.00
2023-03-17T13:16:41.088Z,100442.72
2023-03-17T13:19:08.011Z,100435.69
2023-03-17T13:21:36.440Z,100440.84
2023-03-17T13:24:21.640Z,100432.00
2023-03-17T13:26:57.386Z,100433.72
2023-03-17T13:29:32.235Z,100430.16
2023-03-17T13:32:17.295Z,100419.56
2023-03-17T13:35:16.525Z,100418.66
2023-03-17T13:38:14.208Z,100417.75
2023-03-17T13:41:08.050Z,100416.94
2023-03-17T13:44:12.327Z,100423.19
2023-03-17T13:46:39.915Z,100422.34
2023-03-17T13:49:18.460Z,100430.22
2023-03-17T13:52:13.078Z,100440.78
2023-03-17T13:54:51.277Z,100442.50
2023-03-17T13:58:13.482Z,100435.50
2023-03-17T14:00:49.384Z,100426.81
2023-03-17T14:03:42.570Z,100427.69
2023-03-17T14:06:12.842Z,100427.63
2023-03-17T14:09:03.559Z,100432.00
2023-03-17T14:11:38.789Z,100431.97
2023-03-17T14:14:36.499Z,100438.94
2023-03-17T14:17:39.732Z,100423.22
2023-03-17T14:20:19.833Z,100416.25
2023-03-17T14:22:54.405Z,100415.38
2023-03-17T14:25:26.129Z,100418.00
2023-03-17T14:27:56.967Z,100404.91
2023-03-17T14:30:28.582Z,100401.41
2023-03-17T14:33:06.776Z,100389.09
2023-03-17T14:35:42.187Z,100387.31
2023-03-17T14:38:32.066Z,100379.47
2023-03-17T14:41:16.531Z,100382.16
2023-03-17T14:43:44.306Z,100369.94
2023-03-17T14:46:24.001Z,100374.34
2023-03-17T14:49:16.058Z,100353.41
2023-03-17T14:51:43.188Z,100361.31
2023-03-17T14:54:16.230Z,100366.59
2023-03-17T14:56:48.721Z,100370.94
2023-03-17T14:59:37.494Z,100367.44
2023-03-17T15:02:35.186Z,100359.59
2023-03-17T15:05:26.473Z,100360.50
2023-03-17T15:07:54.123Z,100360.50
2023-03-17T15:10:25.978Z,100350.00
2023-03-17T15:13:02.489Z,100357.03
2023-03-17T15:15:34.685Z,100345.66
2023-03-17T15:18:11.921Z,100347.50
2023-03-17T15:20:38.865Z,100344.88
2023-03-17T15:23:22.177Z,100342.28
2023-03-17T15:25:55.687Z,100328.31
2023-03-17T15:28:29.651Z,100329.25
2023-03-17T15:31:11.481Z,100336.25
2023-03-17T15:33:41.281Z,100331.03
2023-03-17T15:36:29.254Z,100317.91
2023-03-17T15:38:58.503Z,100321.44
2023-03-17T15:41:25.600Z,100324.06
2023-03-17T15:43:52.536Z,100306.56
2023-03-17T15:46:27.654Z,100316.22
2023-03-17T15:48:54.979Z,100323.25
2023-03-17T15:51:22.141Z,100311.88
2023-03-17T15:53:49.265Z,100325.88
2023-03-17T15:56:21.211Z,100325.91
2023-03-17T15:58:52.182Z,100327.66
2023-03-17T16:01:19.990Z,100313.72
2023-03-17T16:03:47.885Z,100317.22
2023-03-17T16:06:22.079Z,100317.25
2023-03-17T16:08:50.007Z,100319.00
2023-03-17T16:11:28.184Z,100326.00
2023-03-17T16:13:57.554Z,100336.50
2023-03-17T16:16:38.192Z,100330.44
2023-03-17T16:19:25.773Z,100321.72
2023-03-17T16:21:55.259Z,100314.75
2023-03-17T16:24:24.688Z,100314.75
2023-03-17T16:26:52.515Z,100318.31
2023-03-17T16:29:21.287Z,100319.19
2023-03-17T16:31:50.857Z,100319.19
2023-03-17T16:34:21.393Z,100314.88
2023-03-17T16:36:48.674Z,100319.28
2023-03-17T16:39:18.631Z,100310.53
2023-03-17T16:41:50.380Z,100311.47
2023-03-17T16:44:19.938Z,100312.31
2023-03-17T16:46:47.403Z,100318.47
2023-03-17T16:49:20.676Z,100315.00
2023-03-17T16:51:49.440Z,100316.75
2023-03-17T16:54:17.505Z,100308.94
2023-03-17T16:56:45.152Z,100312.44
2023-03-17T16:59:20.805Z,100312.44
2023-03-17T17:01:47.909Z,100323.81
2023-03-17T17:04:14.884Z,100318.59
2023-03-17T17:06:41.766Z,100315.97
2023-03-17T17:09:08.680Z,100314.25
2023-03-17T17:11:35.583Z,100313.38
2023-03-17T17:14:02.606Z,100309.03
2023-03-17T17:16:35.959Z,100306.41
2023-03-17T17:19:04.275Z,100308.19
2023-03-17T17:21:32.974Z,100314.28
2023-03-17T17:24:00.274Z,100312.53
2023-03-17T17:26:27.223Z,100318.66
2023-03-17T17:28:54.321Z,100314.31
2023-03-17T17:31:21.286Z,100312.56
2023-03-17T17:33:48.270Z,100312.53
2023-03-17T17:36:17.405Z,100316.94
2023-03-17T17:38:44.555Z,100312.56
2023-03-17T17:41:13.336Z,100327.38
2023-03-17T17:43:41.031Z,100321.28
2023-03-17T17:46:26.107Z,100317.81
2023-03-17T17:48:53.027Z,100330.00
2023-03-17T17:51:19.896Z,100330.88
2023-03-17T17:53:46.920Z,100325.63
2023-03-17T17:56:16.779Z,100331.72
2023-03-17T17:58:44.176Z,100327.41
2023-03-17T18:01:13.880Z,100328.25
2023-03-17T18:03:42.798Z,100330.00
2023-03-17T18:06:10.015Z,100326.44
2023-03-17T18:08:37.514Z,100328.22
2023-03-17T18:11:05.369Z,100323.84
2023-03-17T18:13:34.387Z,100324.72
2023-03-17T18:16:02.000Z,100318.59
2023-03-17T18:18:28.970Z,100322.06
2023-03-17T18:20:56.350Z,100325.56
2023-03-17T18:23:23.376Z,100323.81
2023-03-17T18:25:50.341Z,100321.22
2023-03-17T18:28:17.260Z,100315.09
2023-03-17T18:30:45.179Z,100311.63
2023-03-17T18:33:19.379Z,100308.97
2023-03-17T18:35:50.124Z,100310.72
2023-03-17T18:38:17.230Z,100310.72
2023-03-17T18:40:44.700Z,100307.22
2023-03-17T18:43:11.622Z,100306.38
2023-03-17T18:45:38.670Z,100304.63
2023-03-17T18:48:06.044Z,100309.84
2023-03-17T18:50:33.384Z,100301.16
2023-03-17T18:53:00.481Z,100308.09
2023-03-17T18:55:27.425Z,100305.47
2023-03-17T18:57:54.914Z,100297.66
2023-03-17T19:00:24.572Z,100285.44
2023-03-17T19:02:51.869Z,100279.34
2023-03-17T19:05:18.880Z,100280.22
2023-03-17T19:07:45.916Z,100267.16
2023-03-17T19:10:14.171Z,100270.66
2023-03-17T19:12:42.602Z,100271.53
2023-03-17T19:15:10.698Z,100274.16
2023-03-17T19:17:37.945Z,100288.97
2023-03-17T19:20:06.501Z,100275.91
2023-03-17T19:22:34.890Z,100285.47
2023-03-17T19:25:04.265Z,100273.28
2023-03-17T19:27:31.368Z,100273.28
2023-03-17T19:29:58.332Z,100279.38
2023-03-17T19:32:25.374Z,100281.09
2023-03-17T19:34:52.605Z,100281.09
2023-03-17T19:37:19.512Z,100281.94
2023-03-17T19:39:46.999Z,100279.31
2023-03-17T19:42:13.968Z,100282.81
2023-03-17T19:44:41.178Z,100282.78
2023-03-17T19:47:08.459Z,100280.16
2023-03-17T19:49:37.477Z,100278.41
2023-03-17T19:52:09.531Z,100278.41
2023-03-17T19:54:45.855Z,100285.38
2023-03-17T19:57:14.409Z,100278.41
2023-03-17T19:59:41.430Z,100303.63
2023-03-17T20:02:13.085Z,100291.44
2023-03-17T20:04:40.281Z,100295.75
2023-03-17T20:07:07.408Z,100299.25
2023-03-17T20:09:35.460Z,100300.13
2023-03-17T20:12:02.364Z,100307.97
2023-03-17T20:14:29.264Z,100301.84
2023-03-17T20:16:56.615Z,100307.94
2023-03-17T20:19:23.903Z,100307.94
2023-03-17T20:21:50.999Z,100308.78
2023-03-17T20:24:17.939Z,100310.50
2023-03-17T20:26:45.554Z,100314.00
2023-03-17T20:29:14.295Z,100311.38
2023-03-17T20:31:42.194Z,100307.91
2023-03-17T20:34:10.073Z,100306.16
2023-03-17T20:36:37.583Z,100299.16
2023-03-17T20:39:06.275Z,100307.00
2023-03-17T20:41:33.252Z,100301.75
2023-03-17T20:44:00.129Z,100301.75
2023-03-17T20:46:27.462Z,100295.63
2023-03-17T20:48:58.902Z,100295.63
2023-03-17T20:51:27.231Z,100300.81
2023-03-17T20:53:55.143Z,100292.06
2023-03-17T20:56:24.417Z,100295.56
2023-03-17T20:58:53.193Z,100286.81
2023-03-17T21:01:21.674Z,100291.13
2023-03-17T21:03:50.134Z,100290.25
2023-03-17T21:06:17.725Z,100297.22
2023-03-17T21:08:46.197Z,100291.94
2023-03-17T21:11:23.032Z,100301.47
2023-03-17T21:13:50.600Z,100305.81
2023-03-17T21:16:22.520Z,100302.22
2023-03-17T21:18:49.671Z,100290.03
2023-03-17T21:21:17.458Z,100292.56
2023-03-17T21:23:45.335Z,100296.00
2023-03-17T21:26:14.250Z,100293.38
2023-03-17T21:28:41.832Z,100283.75
2023-03-17T21:31:10.295Z,100280.25
2023-03-17T21:33:37.410Z,100286.31
2023-03-17T21:36:05.192Z,100285.38
2023-03-17T21:38:32.252Z,100291.41
2023-03-17T21:41:39.119Z,100292.25
2023-03-17T21:44:07.892Z,100293.03
2023-03-17T21:46:34.935Z,100284.31
2023-03-17T21:49:02.275Z,100290.31
2023-03-17T21:51:29.702Z,100288.53
2023-03-17T21:53:57.761Z,100292.81
2023-03-17T21:56:24.743Z,100285.00
2023-03-17T21:58:51.948Z,100284.97
2023-03-17T22:01:21.728Z,100287.53
2023-03-17T22:03:51.016Z,100275.34
2023-03-17T22:06:19.184Z,100270.13
2023-03-17T22:08:48.012Z,100270.97
2023-03-17T22:11:18.463Z,100269.22
2023-03-17T22:13:46.113Z,100275.31
2023-03-17T22:16:14.657Z,100267.50
2023-03-17T22:18:41.885Z,100263.16
2023-03-17T22:21:10.102Z,100271.84
2023-03-17T22:23:41.654Z,100265.75
2023-03-17T22:26:14.539Z,100273.56
2023-03-17T22:28:43.077Z,100275.25
2023-03-17T22:31:17.150Z,100270.88
2023-03-17T22:33:44.793Z,100264.78
2023-03-17T22:36:12.502Z,100268.22
2023-03-17T22:38:39.504Z,100269.91
2023-03-17T22:41:12.042Z,100270.78
2023-03-17T22:43:40.098Z,100269.88
2023-03-17T22:46:07.576Z,100270.72
2023-03-17T22:48:36.111Z,100264.59
2023-03-17T22:51:05.799Z,100267.16
2023-03-17T22:53:33.503Z,100261.09
2023-03-17T22:56:01.216Z,100261.94
2023-03-17T22:58:29.010Z,100257.63
2023-03-17T23:00:56.454Z,100252.38
2023-03-17T23:03:25.509Z,100257.56
2023-03-17T23:05:57.441Z,100263.63
2023-03-17T23:08:26.081Z,100256.69
2023-03-17T23:10:53.988Z,100250.56
2023-03-17T23:13:21.401Z,100257.53
2023-03-17T23:15:49.028Z,100254.06
2023-03-17T23:18:16.616Z,100255.84
2023-03-17T23:20:43.941Z,100249.78
2023-03-17T23:23:12.285Z,100246.31
2023-03-17T23:25:39.648Z,100260.25
2023-03-17T23:28:07.908Z,100250.72
2023-03-17T23:30:35.812Z,100246.44
2023-03-17T23:33:04.842Z,100248.19
2023-03-17T23:35:33.322Z,100240.41
2023-03-17T23:38:00.353Z,100230.00
2023-03-17T23:40:27.292Z,100227.38
2023-03-17T23:42:55.160Z,100233.47
2023-03-17T23:45:23.401Z,100236.09
2023-03-17T23:47:52.455Z,100237.81
2023-03-17T23:50:21.049Z,100234.38
2023-03-17T23:52:48.167Z,100238.69
2023-03-17T23:55:18.446Z,100239.56
2023-03-17T23:57:45.707Z,100239.56
